sensor_id;sensor_type;location;lat;lon;timestamp;P1;durP1;ratioP1;P2;durP2;ratioP2
39322;SDS011;25036;53.638;10.134;2023-06-22T00:00:10;2.60;;;1.90;;
39322;SDS011;25036;53.638;10.134;2023-06-22T00:01:11;2.45;;;2.20;;
39322;SDS011;25036;53.638;10.134;2023-06-22T00:02:12;2.43;;;2.10;;
39322;SDS011;25036;53.638;10.134;2023-06-22T00:03:12;1.70;;;1.60;;
39322;SDS011;25036;53.638;10.134;2023-06-22T00:04:12;2.90;;;1.90;;
39322;SDS011;25036;53.638;10.134;2023-06-22T00:05:12;4.87;;;1.83;;
39322;SDS011;25036;53.638;10.134;2023-06-22T00:06:12;1.90;;;1.80;;
39322;SDS011;25036;53.638;10.134;2023-06-22T00:07:12;2.38;;;1.90;;
39322;SDS011;25036;53.638;10.134;2023-06-22T00:08:13;2.00;;;1.80;;
39322;SDS011;25036;53.638;10.134;2023-06-22T00:09:13;3.03;;;1.90;;
39322;SDS011;25036;53.638;10.134;2023-06-22T00:10:14;3.70;;;2.38;;
39322;SDS011;25036;53.638;10.134;2023-06-22T00:11:14;2.83;;;1.87;;
39322;SDS011;25036;53.638;10.134;2023-06-22T00:12:14;2.77;;;1.97;;
39322;SDS011;25036;53.638;10.134;2023-06-22T00:13:14;3.47;;;1.90;;
39322;SDS011;25036;53.638;10.134;2023-06-22T00:14:15;3.30;;;1.95;;
39322;SDS011;25036;53.638;10.134;2023-06-22T00:15:16;1.80;;;1.70;;
39322;SDS011;25036;53.638;10.134;2023-06-22T00:16:16;2.53;;;1.77;;
39322;SDS011;25036;53.638;10.134;2023-06-22T00:17:16;2.50;;;1.80;;
39322;SDS011;25036;53.638;10.134;2023-06-22T00:18:16;1.70;;;1.60;;
39322;SDS011;25036;53.638;10.134;2023-06-22T00:19:16;2.13;;;1.80;;
39322;SDS011;25036;53.638;10.134;2023-06-22T00:20:16;3.23;;;1.97;;
39322;SDS011;25036;53.638;10.134;2023-06-22T00:21:18;2.85;;;2.17;;
39322;SDS011;25036;53.638;10.134;2023-06-22T00:22:20;2.65;;;1.90;;
39322;SDS011;25036;53.638;10.134;2023-06-22T00:23:28;1.92;;;1.77;;
39322;SDS011;25036;53.638;10.134;2023-06-22T00:24:28;3.63;;;2.10;;
39322;SDS011;25036;53.638;10.134;2023-06-22T00:25:28;2.77;;;1.90;;
39322;SDS011;25036;53.638;10.134;2023-06-22T00:26:29;2.97;;;2.07;;
39322;SDS011;25036;53.638;10.134;2023-06-22T00:27:29;2.22;;;1.95;;
39322;SDS011;25036;53.638;10.134;2023-06-22T00:28:29;2.53;;;1.90;;
39322;SDS011;25036;53.638;10.134;2023-06-22T00:29:30;1.73;;;1.63;;
39322;SDS011;25036;53.638;10.134;2023-06-22T00:30:30;2.10;;;1.93;;
39322;SDS011;25036;53.638;10.134;2023-06-22T00:31:31;2.92;;;1.75;;
39322;SDS011;25036;53.638;10.134;2023-06-22T00:32:31;2.38;;;1.88;;
39322;SDS011;25036;53.638;10.134;2023-06-22T00:33:31;3.37;;;2.17;;
39322;SDS011;25036;53.638;10.134;2023-06-22T00:34:31;2.10;;;1.88;;
39322;SDS011;25036;53.638;10.134;2023-06-22T00:35:31;2.23;;;1.90;;
39322;SDS011;25036;53.638;10.134;2023-06-22T00:36:31;3.57;;;2.10;;
39322;SDS011;25036;53.638;10.134;2023-06-22T00:37:32;2.78;;;2.05;;
39322;SDS011;25036;53.638;10.134;2023-06-22T00:38:32;3.45;;;2.28;;
39322;SDS011;25036;53.638;10.134;2023-06-22T00:39:32;2.23;;;2.03;;
39322;SDS011;25036;53.638;10.134;2023-06-22T00:40:33;2.20;;;2.00;;
39322;SDS011;25036;53.638;10.134;2023-06-22T00:41:33;2.67;;;2.03;;
39322;SDS011;25036;53.638;10.134;2023-06-22T00:42:34;3.85;;;1.80;;
39322;SDS011;25036;53.638;10.134;2023-06-22T00:43:34;1.93;;;1.73;;
39322;SDS011;25036;53.638;10.134;2023-06-22T00:44:35;1.80;;;1.70;;
39322;SDS011;25036;53.638;10.134;2023-06-22T00:45:35;1.80;;;1.70;;
39322;SDS011;25036;53.638;10.134;2023-06-22T00:46:35;4.37;;;1.80;;
39322;SDS011;25036;53.638;10.134;2023-06-22T00:47:35;1.98;;;1.77;;
39322;SDS011;25036;53.638;10.134;2023-06-22T00:48:36;2.80;;;2.10;;
39322;SDS011;25036;53.638;10.134;2023-06-22T00:49:36;3.47;;;1.85;;
39322;SDS011;25036;53.638;10.134;2023-06-22T00:50:37;2.88;;;2.03;;
39322;SDS011;25036;53.638;10.134;2023-06-22T00:51:37;3.78;;;2.05;;
39322;SDS011;25036;53.638;10.134;2023-06-22T00:52:38;2.38;;;1.98;;
39322;SDS011;25036;53.638;10.134;2023-06-22T00:53:43;3.00;;;2.05;;
39322;SDS011;25036;53.638;10.134;2023-06-22T00:54:43;3.20;;;2.28;;
39322;SDS011;25036;53.638;10.134;2023-06-22T00:55:45;2.65;;;1.80;;
39322;SDS011;25036;53.638;10.134;2023-06-22T00:56:47;2.22;;;1.95;;
39322;SDS011;25036;53.638;10.134;2023-06-22T00:57:47;3.50;;;2.43;;
39322;SDS011;25036;53.638;10.134;2023-06-22T00:58:47;2.65;;;2.03;;
39322;SDS011;25036;53.638;10.134;2023-06-22T00:59:48;2.77;;;2.37;;
39322;SDS011;25036;53.638;10.134;2023-06-22T01:00:48;2.78;;;2.20;;
39322;SDS011;25036;53.638;10.134;2023-06-22T01:01:48;2.42;;;1.92;;
39322;SDS011;25036;53.638;10.134;2023-06-22T01:02:49;2.67;;;2.25;;
39322;SDS011;25036;53.638;10.134;2023-06-22T01:03:51;1.95;;;1.77;;
39322;SDS011;25036;53.638;10.134;2023-06-22T01:04:52;2.45;;;2.17;;
39322;SDS011;25036;53.638;10.134;2023-06-22T01:05:52;2.80;;;2.00;;
39322;SDS011;25036;53.638;10.134;2023-06-22T01:07:02;2.80;;;2.10;;
39322;SDS011;25036;53.638;10.134;2023-06-22T01:08:08;3.08;;;2.10;;
39322;SDS011;25036;53.638;10.134;2023-06-22T01:09:16;2.67;;;2.20;;
39322;SDS011;25036;53.638;10.134;2023-06-22T01:10:32;3.08;;;2.00;;
39322;SDS011;25036;53.638;10.134;2023-06-22T01:11:36;2.30;;;2.00;;
39322;SDS011;25036;53.638;10.134;2023-06-22T01:12:38;2.22;;;1.88;;
39322;SDS011;25036;53.638;10.134;2023-06-22T01:15:02;2.42;;;2.22;;
39322;SDS011;25036;53.638;10.134;2023-06-22T01:16:09;2.70;;;1.88;;
39322;SDS011;25036;53.638;10.134;2023-06-22T01:17:10;2.30;;;2.05;;
39322;SDS011;25036;53.638;10.134;2023-06-22T01:18:12;3.80;;;1.90;;
39322;SDS011;25036;53.638;10.134;2023-06-22T01:20:34;2.47;;;2.10;;
39322;SDS011;25036;53.638;10.134;2023-06-22T01:21:34;3.03;;;2.47;;
39322;SDS011;25036;53.638;10.134;2023-06-22T01:22:38;3.35;;;2.20;;
39322;SDS011;25036;53.638;10.134;2023-06-22T01:27:47;3.05;;;2.30;;
39322;SDS011;25036;53.638;10.134;2023-06-22T01:28:50;2.92;;;2.28;;
39322;SDS011;25036;53.638;10.134;2023-06-22T01:29:52;2.20;;;2.00;;
39322;SDS011;25036;53.638;10.134;2023-06-22T01:31:00;2.25;;;1.85;;
39322;SDS011;25036;53.638;10.134;2023-06-22T01:32:05;3.08;;;2.10;;
39322;SDS011;25036;53.638;10.134;2023-06-22T01:33:06;2.97;;;2.10;;
39322;SDS011;25036;53.638;10.134;2023-06-22T01:34:07;4.07;;;2.00;;
39322;SDS011;25036;53.638;10.134;2023-06-22T01:35:08;2.78;;;2.13;;
39322;SDS011;25036;53.638;10.134;2023-06-22T01:36:09;2.60;;;1.88;;
39322;SDS011;25036;53.638;10.134;2023-06-22T01:37:09;3.45;;;2.30;;
39322;SDS011;25036;53.638;10.134;2023-06-22T01:38:09;3.10;;;2.13;;
39322;SDS011;25036;53.638;10.134;2023-06-22T01:39:10;3.88;;;2.13;;
39322;SDS011;25036;53.638;10.134;2023-06-22T01:40:11;1.80;;;1.70;;
39322;SDS011;25036;53.638;10.134;2023-06-22T01:41:12;2.35;;;1.95;;
39322;SDS011;25036;53.638;10.134;2023-06-22T01:42:12;2.63;;;2.00;;
39322;SDS011;25036;53.638;10.134;2023-06-22T01:43:12;3.57;;;2.10;;
39322;SDS011;25036;53.638;10.134;2023-06-22T01:44:12;3.37;;;1.97;;
39322;SDS011;25036;53.638;10.134;2023-06-22T01:45:13;3.00;;;2.03;;
39322;SDS011;25036;53.638;10.134;2023-06-22T01:46:13;2.27;;;2.07;;
39322;SDS011;25036;53.638;10.134;2023-06-22T01:47:14;2.58;;;2.30;;
39322;SDS011;25036;53.638;10.134;2023-06-22T01:48:14;2.15;;;1.92;;
39322;SDS011;25036;53.638;10.134;2023-06-22T01:49:14;2.33;;;2.00;;
39322;SDS011;25036;53.638;10.134;2023-06-22T01:50:15;3.42;;;2.63;;
39322;SDS011;25036;53.638;10.134;2023-06-22T01:51:15;2.70;;;2.10;;
39322;SDS011;25036;53.638;10.134;2023-06-22T01:52:15;3.50;;;2.30;;
39322;SDS011;25036;53.638;10.134;2023-06-22T01:53:15;2.37;;;2.03;;
39322;SDS011;25036;53.638;10.134;2023-06-22T01:54:15;3.27;;;2.20;;
39322;SDS011;25036;53.638;10.134;2023-06-22T01:55:16;2.43;;;2.23;;
39322;SDS011;25036;53.638;10.134;2023-06-22T01:56:18;2.17;;;1.97;;
39322;SDS011;25036;53.638;10.134;2023-06-22T01:57:19;2.33;;;2.10;;
39322;SDS011;25036;53.638;10.134;2023-06-22T01:58:20;3.33;;;2.00;;
39322;SDS011;25036;53.638;10.134;2023-06-22T01:59:24;3.47;;;1.90;;
39322;SDS011;25036;53.638;10.134;2023-06-22T02:00:25;2.20;;;2.00;;
39322;SDS011;25036;53.638;10.134;2023-06-22T02:01:28;2.67;;;2.30;;
39322;SDS011;25036;53.638;10.134;2023-06-22T02:02:36;2.55;;;1.98;;
39322;SDS011;25036;53.638;10.134;2023-06-22T02:03:40;2.30;;;2.00;;
39322;SDS011;25036;53.638;10.134;2023-06-22T02:04:46;2.42;;;2.22;;
39322;SDS011;25036;53.638;10.134;2023-06-22T02:05:49;2.30;;;2.10;;
39322;SDS011;25036;53.638;10.134;2023-06-22T02:06:50;2.83;;;2.35;;
39322;SDS011;25036;53.638;10.134;2023-06-22T02:08:08;2.60;;;2.20;;
39322;SDS011;25036;53.638;10.134;2023-06-22T02:09:09;2.60;;;2.10;;
39322;SDS011;25036;53.638;10.134;2023-06-22T02:10:11;3.35;;;2.30;;
39322;SDS011;25036;53.638;10.134;2023-06-22T02:11:14;4.13;;;2.25;;
39322;SDS011;25036;53.638;10.134;2023-06-22T02:12:18;3.60;;;2.40;;
39322;SDS011;25036;53.638;10.134;2023-06-22T02:13:18;4.45;;;2.13;;
39322;SDS011;25036;53.638;10.134;2023-06-22T02:14:18;2.58;;;2.10;;
39322;SDS011;25036;53.638;10.134;2023-06-22T02:15:19;2.40;;;2.20;;
39322;SDS011;25036;53.638;10.134;2023-06-22T02:16:19;2.58;;;2.00;;
39322;SDS011;25036;53.638;10.134;2023-06-22T02:17:20;2.28;;;2.08;;
39322;SDS011;25036;53.638;10.134;2023-06-22T02:18:20;2.42;;;2.22;;
39322;SDS011;25036;53.638;10.134;2023-06-22T02:19:23;2.83;;;2.38;;
39322;SDS011;25036;53.638;10.134;2023-06-22T02:20:24;3.42;;;2.05;;
39322;SDS011;25036;53.638;10.134;2023-06-22T02:21:24;2.30;;;2.10;;
39322;SDS011;25036;53.638;10.134;2023-06-22T02:22:24;2.10;;;1.90;;
39322;SDS011;25036;53.638;10.134;2023-06-22T02:23:25;3.60;;;2.33;;
39322;SDS011;25036;53.638;10.134;2023-06-22T02:24:25;2.80;;;2.20;;
39322;SDS011;25036;53.638;10.134;2023-06-22T02:25:25;3.67;;;2.30;;
39322;SDS011;25036;53.638;10.134;2023-06-22T02:26:25;2.73;;;2.20;;
39322;SDS011;25036;53.638;10.134;2023-06-22T02:27:26;2.83;;;2.40;;
39322;SDS011;25036;53.638;10.134;2023-06-22T02:28:26;2.63;;;2.30;;
39322;SDS011;25036;53.638;10.134;2023-06-22T02:29:26;3.10;;;2.10;;
39322;SDS011;25036;53.638;10.134;2023-06-22T02:30:27;2.40;;;2.20;;
39322;SDS011;25036;53.638;10.134;2023-06-22T02:31:27;2.40;;;2.20;;
39322;SDS011;25036;53.638;10.134;2023-06-22T02:32:30;2.38;;;2.17;;
39322;SDS011;25036;53.638;10.134;2023-06-22T02:33:30;2.20;;;2.00;;
39322;SDS011;25036;53.638;10.134;2023-06-22T02:34:31;3.50;;;2.40;;
39322;SDS011;25036;53.638;10.134;2023-06-22T02:35:33;3.00;;;2.20;;
39322;SDS011;25036;53.638;10.134;2023-06-22T02:36:35;2.20;;;1.85;;
39322;SDS011;25036;53.638;10.134;2023-06-22T02:37:36;3.13;;;2.20;;
39322;SDS011;25036;53.638;10.134;2023-06-22T02:38:40;5.32;;;2.85;;
39322;SDS011;25036;53.638;10.134;2023-06-22T02:39:45;2.40;;;2.20;;
39322;SDS011;25036;53.638;10.134;2023-06-22T02:40:45;3.23;;;1.90;;
39322;SDS011;25036;53.638;10.134;2023-06-22T02:41:46;2.45;;;2.25;;
39322;SDS011;25036;53.638;10.134;2023-06-22T02:42:46;2.50;;;1.87;;
39322;SDS011;25036;53.638;10.134;2023-06-22T02:43:46;4.40;;;2.30;;
39322;SDS011;25036;53.638;10.134;2023-06-22T02:44:46;2.50;;;2.30;;
39322;SDS011;25036;53.638;10.134;2023-06-22T02:45:46;3.00;;;2.00;;
39322;SDS011;25036;53.638;10.134;2023-06-22T02:46:47;3.53;;;2.50;;
39322;SDS011;25036;53.638;10.134;2023-06-22T02:47:47;2.90;;;2.40;;
39322;SDS011;25036;53.638;10.134;2023-06-22T02:48:50;2.50;;;2.30;;
39322;SDS011;25036;53.638;10.134;2023-06-22T02:49:50;2.53;;;2.15;;
39322;SDS011;25036;53.638;10.134;2023-06-22T02:50:50;2.40;;;2.20;;
39322;SDS011;25036;53.638;10.134;2023-06-22T02:51:50;2.40;;;2.20;;
39322;SDS011;25036;53.638;10.134;2023-06-22T02:52:51;3.17;;;2.33;;
39322;SDS011;25036;53.638;10.134;2023-06-22T02:53:51;3.67;;;2.67;;
39322;SDS011;25036;53.638;10.134;2023-06-22T02:54:56;3.72;;;2.42;;
39322;SDS011;25036;53.638;10.134;2023-06-22T02:55:56;2.70;;;2.30;;
39322;SDS011;25036;53.638;10.134;2023-06-22T02:56:56;5.20;;;2.13;;
39322;SDS011;25036;53.638;10.134;2023-06-22T02:57:56;5.00;;;2.30;;
39322;SDS011;25036;53.638;10.134;2023-06-22T02:58:57;2.80;;;2.30;;
39322;SDS011;25036;53.638;10.134;2023-06-22T03:00:02;3.30;;;2.35;;
39322;SDS011;25036;53.638;10.134;2023-06-22T03:01:03;2.45;;;2.25;;
39322;SDS011;25036;53.638;10.134;2023-06-22T03:02:04;2.50;;;2.30;;
39322;SDS011;25036;53.638;10.134;2023-06-22T03:03:05;5.03;;;2.67;;
39322;SDS011;25036;53.638;10.134;2023-06-22T03:04:05;2.87;;;2.67;;
39322;SDS011;25036;53.638;10.134;2023-06-22T03:05:06;2.45;;;2.05;;
39322;SDS011;25036;53.638;10.134;2023-06-22T03:06:06;2.65;;;2.08;;
39322;SDS011;25036;53.638;10.134;2023-06-22T03:07:06;2.42;;;2.17;;
39322;SDS011;25036;53.638;10.134;2023-06-22T03:08:07;4.57;;;2.40;;
39322;SDS011;25036;53.638;10.134;2023-06-22T03:09:07;3.10;;;2.03;;
39322;SDS011;25036;53.638;10.134;2023-06-22T03:10:10;3.43;;;2.83;;
39322;SDS011;25036;53.638;10.134;2023-06-22T03:11:11;3.72;;;2.40;;
39322;SDS011;25036;53.638;10.134;2023-06-22T03:12:11;2.93;;;2.13;;
39322;SDS011;25036;53.638;10.134;2023-06-22T03:13:11;4.35;;;2.60;;
39322;SDS011;25036;53.638;10.134;2023-06-22T03:14:11;2.77;;;2.07;;
39322;SDS011;25036;53.638;10.134;2023-06-22T03:15:12;4.37;;;2.53;;
39322;SDS011;25036;53.638;10.134;2023-06-22T03:16:12;2.92;;;2.30;;
39322;SDS011;25036;53.638;10.134;2023-06-22T03:17:12;3.67;;;2.50;;
39322;SDS011;25036;53.638;10.134;2023-06-22T03:18:12;2.37;;;2.10;;
39322;SDS011;25036;53.638;10.134;2023-06-22T03:19:13;2.50;;;2.30;;
39322;SDS011;25036;53.638;10.134;2023-06-22T03:20:13;2.38;;;2.17;;
39322;SDS011;25036;53.638;10.134;2023-06-22T03:21:13;2.87;;;2.20;;
39322;SDS011;25036;53.638;10.134;2023-06-22T03:22:15;2.50;;;2.10;;
39322;SDS011;25036;53.638;10.134;2023-06-22T03:23:15;2.60;;;2.40;;
39322;SDS011;25036;53.638;10.134;2023-06-22T03:24:15;4.93;;;2.43;;
39322;SDS011;25036;53.638;10.134;2023-06-22T03:25:15;4.97;;;2.90;;
39322;SDS011;25036;53.638;10.134;2023-06-22T03:26:19;4.93;;;3.10;;
39322;SDS011;25036;53.638;10.134;2023-06-22T03:27:19;3.95;;;2.90;;
39322;SDS011;25036;53.638;10.134;2023-06-22T03:28:19;3.47;;;2.80;;
39322;SDS011;25036;53.638;10.134;2023-06-22T03:29:19;4.53;;;3.27;;
39322;SDS011;25036;53.638;10.134;2023-06-22T03:30:19;4.50;;;3.20;;
39322;SDS011;25036;53.638;10.134;2023-06-22T03:31:19;4.27;;;3.47;;
39322;SDS011;25036;53.638;10.134;2023-06-22T03:32:21;3.63;;;2.67;;
39322;SDS011;25036;53.638;10.134;2023-06-22T03:33:21;3.70;;;2.90;;
39322;SDS011;25036;53.638;10.134;2023-06-22T03:34:22;3.13;;;2.50;;
39322;SDS011;25036;53.638;10.134;2023-06-22T03:35:22;3.43;;;3.00;;
39322;SDS011;25036;53.638;10.134;2023-06-22T03:36:22;3.00;;;2.60;;
39322;SDS011;25036;53.638;10.134;2023-06-22T03:37:22;2.93;;;2.60;;
39322;SDS011;25036;53.638;10.134;2023-06-22T03:38:23;4.83;;;2.80;;
39322;SDS011;25036;53.638;10.134;2023-06-22T03:39:23;3.40;;;3.10;;
39322;SDS011;25036;53.638;10.134;2023-06-22T03:40:23;3.05;;;2.75;;
39322;SDS011;25036;53.638;10.134;2023-06-22T03:41:23;3.10;;;2.80;;
39322;SDS011;25036;53.638;10.134;2023-06-22T03:42:23;3.60;;;3.17;;
39322;SDS011;25036;53.638;10.134;2023-06-22T03:43:24;2.75;;;2.55;;
39322;SDS011;25036;53.638;10.134;2023-06-22T03:44:24;4.10;;;2.90;;
39322;SDS011;25036;53.638;10.134;2023-06-22T03:45:24;2.97;;;2.60;;
39322;SDS011;25036;53.638;10.134;2023-06-22T03:46:24;2.97;;;2.40;;
39322;SDS011;25036;53.638;10.134;2023-06-22T03:47:24;3.00;;;2.70;;
39322;SDS011;25036;53.638;10.134;2023-06-22T03:48:24;3.60;;;3.10;;
39322;SDS011;25036;53.638;10.134;2023-06-22T03:49:25;4.23;;;2.90;;
39322;SDS011;25036;53.638;10.134;2023-06-22T03:50:25;4.73;;;2.90;;
39322;SDS011;25036;53.638;10.134;2023-06-22T03:51:25;3.00;;;2.70;;
39322;SDS011;25036;53.638;10.134;2023-06-22T03:52:25;3.83;;;3.07;;
39322;SDS011;25036;53.638;10.134;2023-06-22T03:53:25;3.80;;;2.90;;
39322;SDS011;25036;53.638;10.134;2023-06-22T03:54:25;3.83;;;2.70;;
39322;SDS011;25036;53.638;10.134;2023-06-22T03:55:25;3.63;;;2.77;;
39322;SDS011;25036;53.638;10.134;2023-06-22T03:56:26;3.57;;;3.20;;
39322;SDS011;25036;53.638;10.134;2023-06-22T03:57:26;3.50;;;2.90;;
39322;SDS011;25036;53.638;10.134;2023-06-22T03:58:26;4.87;;;2.87;;
39322;SDS011;25036;53.638;10.134;2023-06-22T03:59:26;3.40;;;2.90;;
39322;SDS011;25036;53.638;10.134;2023-06-22T04:00:26;5.13;;;2.70;;
39322;SDS011;25036;53.638;10.134;2023-06-22T04:01:26;3.47;;;2.70;;
39322;SDS011;25036;53.638;10.134;2023-06-22T04:02:26;2.90;;;2.60;;
39322;SDS011;25036;53.638;10.134;2023-06-22T04:03:27;3.63;;;2.58;;
39322;SDS011;25036;53.638;10.134;2023-06-22T04:04:27;2.80;;;2.57;;
39322;SDS011;25036;53.638;10.134;2023-06-22T04:05:27;2.92;;;2.63;;
39322;SDS011;25036;53.638;10.134;2023-06-22T04:06:27;2.77;;;2.57;;
39322;SDS011;25036;53.638;10.134;2023-06-22T04:07:28;3.47;;;2.80;;
39322;SDS011;25036;53.638;10.134;2023-06-22T04:08:28;2.60;;;2.30;;
39322;SDS011;25036;53.638;10.134;2023-06-22T04:09:28;3.60;;;2.30;;
39322;SDS011;25036;53.638;10.134;2023-06-22T04:10:28;3.03;;;2.70;;
39322;SDS011;25036;53.638;10.134;2023-06-22T04:11:28;3.57;;;2.80;;
39322;SDS011;25036;53.638;10.134;2023-06-22T04:12:28;3.50;;;2.67;;
39322;SDS011;25036;53.638;10.134;2023-06-22T04:13:28;3.00;;;2.70;;
39322;SDS011;25036;53.638;10.134;2023-06-22T04:14:29;4.20;;;2.70;;
39322;SDS011;25036;53.638;10.134;2023-06-22T04:15:29;2.58;;;2.38;;
39322;SDS011;25036;53.638;10.134;2023-06-22T04:16:29;4.47;;;2.43;;
39322;SDS011;25036;53.638;10.134;2023-06-22T04:17:29;2.87;;;2.53;;
39322;SDS011;25036;53.638;10.134;2023-06-22T04:18:29;3.77;;;2.60;;
39322;SDS011;25036;53.638;10.134;2023-06-22T04:19:29;3.28;;;2.65;;
39322;SDS011;25036;53.638;10.134;2023-06-22T04:20:31;4.00;;;2.93;;
39322;SDS011;25036;53.638;10.134;2023-06-22T04:21:31;3.15;;;2.65;;
39322;SDS011;25036;53.638;10.134;2023-06-22T04:22:31;2.60;;;2.33;;
39322;SDS011;25036;53.638;10.134;2023-06-22T04:23:31;2.87;;;2.67;;
39322;SDS011;25036;53.638;10.134;2023-06-22T04:24:31;4.73;;;2.60;;
39322;SDS011;25036;53.638;10.134;2023-06-22T04:25:32;3.05;;;2.75;;
39322;SDS011;25036;53.638;10.134;2023-06-22T04:26:32;3.13;;;2.33;;
39322;SDS011;25036;53.638;10.134;2023-06-22T04:27:36;4.00;;;2.88;;
39322;SDS011;25036;53.638;10.134;2023-06-22T04:28:40;2.78;;;2.50;;
39322;SDS011;25036;53.638;10.134;2023-06-22T04:29:40;3.95;;;2.95;;
39322;SDS011;25036;53.638;10.134;2023-06-22T04:30:48;3.38;;;2.80;;
39322;SDS011;25036;53.638;10.134;2023-06-22T04:31:48;5.50;;;3.67;;
39322;SDS011;25036;53.638;10.134;2023-06-22T04:32:50;3.95;;;3.10;;
39322;SDS011;25036;53.638;10.134;2023-06-22T04:34:00;4.35;;;3.00;;
39322;SDS011;25036;53.638;10.134;2023-06-22T04:35:06;4.63;;;3.03;;
39322;SDS011;25036;53.638;10.134;2023-06-22T04:36:06;4.05;;;2.63;;
39322;SDS011;25036;53.638;10.134;2023-06-22T04:37:06;3.13;;;2.80;;
39322;SDS011;25036;53.638;10.134;2023-06-22T04:38:07;4.07;;;3.03;;
39322;SDS011;25036;53.638;10.134;2023-06-22T04:39:08;4.30;;;3.00;;
39322;SDS011;25036;53.638;10.134;2023-06-22T04:40:09;4.03;;;3.00;;
39322;SDS011;25036;53.638;10.134;2023-06-22T04:41:09;3.13;;;2.80;;
39322;SDS011;25036;53.638;10.134;2023-06-22T04:42:14;3.20;;;2.90;;
39322;SDS011;25036;53.638;10.134;2023-06-22T04:43:14;4.07;;;2.97;;
39322;SDS011;25036;53.638;10.134;2023-06-22T04:44:15;3.70;;;3.10;;
39322;SDS011;25036;53.638;10.134;2023-06-22T04:45:23;3.53;;;3.00;;
39322;SDS011;25036;53.638;10.134;2023-06-22T04:46:23;3.57;;;3.27;;
39322;SDS011;25036;53.638;10.134;2023-06-22T04:47:23;3.93;;;3.33;;
39322;SDS011;25036;53.638;10.134;2023-06-22T04:48:24;3.73;;;3.33;;
39322;SDS011;25036;53.638;10.134;2023-06-22T04:49:24;4.57;;;3.20;;
39322;SDS011;25036;53.638;10.134;2023-06-22T04:50:32;5.00;;;3.20;;
39322;SDS011;25036;53.638;10.134;2023-06-22T04:51:32;4.07;;;3.13;;
39322;SDS011;25036;53.638;10.134;2023-06-22T04:52:32;3.70;;;3.30;;
39322;SDS011;25036;53.638;10.134;2023-06-22T04:53:32;3.40;;;3.10;;
39322;SDS011;25036;53.638;10.134;2023-06-22T04:54:33;3.40;;;3.10;;
39322;SDS011;25036;53.638;10.134;2023-06-22T04:55:33;3.10;;;2.80;;
39322;SDS011;25036;53.638;10.134;2023-06-22T04:56:33;3.60;;;2.60;;
39322;SDS011;25036;53.638;10.134;2023-06-22T04:57:34;3.17;;;2.70;;
39322;SDS011;25036;53.638;10.134;2023-06-22T04:58:34;4.40;;;2.93;;
39322;SDS011;25036;53.638;10.134;2023-06-22T04:59:34;4.63;;;3.03;;
39322;SDS011;25036;53.638;10.134;2023-06-22T05:00:34;3.83;;;3.27;;
39322;SDS011;25036;53.638;10.134;2023-06-22T05:01:38;4.13;;;3.05;;
39322;SDS011;25036;53.638;10.134;2023-06-22T05:02:41;4.13;;;3.00;;
39322;SDS011;25036;53.638;10.134;2023-06-22T05:03:41;4.10;;;2.85;;
39322;SDS011;25036;53.638;10.134;2023-06-22T05:04:41;4.75;;;3.25;;
39322;SDS011;25036;53.638;10.134;2023-06-22T05:05:41;4.27;;;3.13;;
39322;SDS011;25036;53.638;10.134;2023-06-22T05:06:41;4.30;;;3.07;;
39322;SDS011;25036;53.638;10.134;2023-06-22T05:07:42;3.60;;;3.10;;
39322;SDS011;25036;53.638;10.134;2023-06-22T05:08:43;4.65;;;3.40;;
39322;SDS011;25036;53.638;10.134;2023-06-22T05:09:43;5.35;;;3.35;;
39322;SDS011;25036;53.638;10.134;2023-06-22T05:10:43;4.67;;;3.20;;
39322;SDS011;25036;53.638;10.134;2023-06-22T05:11:44;4.17;;;2.73;;
39322;SDS011;25036;53.638;10.134;2023-06-22T05:12:44;3.35;;;2.72;;
39322;SDS011;25036;53.638;10.134;2023-06-22T05:13:44;3.22;;;2.75;;
39322;SDS011;25036;53.638;10.134;2023-06-22T05:14:44;4.23;;;3.13;;
39322;SDS011;25036;53.638;10.134;2023-06-22T05:15:45;3.73;;;3.30;;
39322;SDS011;25036;53.638;10.134;2023-06-22T05:16:48;3.30;;;2.75;;
39322;SDS011;25036;53.638;10.134;2023-06-22T05:17:48;3.80;;;2.88;;
39322;SDS011;25036;53.638;10.134;2023-06-22T05:18:48;3.37;;;2.60;;
39322;SDS011;25036;53.638;10.134;2023-06-22T05:19:48;3.70;;;2.93;;
39322;SDS011;25036;53.638;10.134;2023-06-22T05:20:49;3.95;;;2.60;;
39322;SDS011;25036;53.638;10.134;2023-06-22T05:21:49;3.20;;;2.70;;
39322;SDS011;25036;53.638;10.134;2023-06-22T05:22:49;4.07;;;2.70;;
39322;SDS011;25036;53.638;10.134;2023-06-22T05:23:49;3.20;;;2.73;;
39322;SDS011;25036;53.638;10.134;2023-06-22T05:24:50;2.88;;;2.55;;
39322;SDS011;25036;53.638;10.134;2023-06-22T05:25:50;3.87;;;2.87;;
39322;SDS011;25036;53.638;10.134;2023-06-22T05:26:50;4.05;;;2.80;;
39322;SDS011;25036;53.638;10.134;2023-06-22T05:27:51;3.20;;;2.90;;
39322;SDS011;25036;53.638;10.134;2023-06-22T05:28:52;4.30;;;2.88;;
39322;SDS011;25036;53.638;10.134;2023-06-22T05:29:52;4.82;;;3.05;;
39322;SDS011;25036;53.638;10.134;2023-06-22T05:30:52;3.50;;;2.40;;
39322;SDS011;25036;53.638;10.134;2023-06-22T05:31:52;2.80;;;2.45;;
39322;SDS011;25036;53.638;10.134;2023-06-22T05:32:52;3.57;;;2.57;;
39322;SDS011;25036;53.638;10.134;2023-06-22T05:33:53;4.13;;;2.70;;
39322;SDS011;25036;53.638;10.134;2023-06-22T05:34:53;5.03;;;2.70;;
39322;SDS011;25036;53.638;10.134;2023-06-22T05:35:54;3.57;;;2.50;;
39322;SDS011;25036;53.638;10.134;2023-06-22T05:36:54;3.92;;;2.53;;
39322;SDS011;25036;53.638;10.134;2023-06-22T05:37:54;3.13;;;2.57;;
39322;SDS011;25036;53.638;10.134;2023-06-22T05:38:56;3.28;;;2.40;;
39322;SDS011;25036;53.638;10.134;2023-06-22T05:39:56;2.80;;;2.33;;
39322;SDS011;25036;53.638;10.134;2023-06-22T05:40:57;4.63;;;3.00;;
39322;SDS011;25036;53.638;10.134;2023-06-22T05:41:57;3.97;;;2.50;;
39322;SDS011;25036;53.638;10.134;2023-06-22T05:42:57;3.17;;;2.20;;
39322;SDS011;25036;53.638;10.134;2023-06-22T05:43:57;4.18;;;2.60;;
39322;SDS011;25036;53.638;10.134;2023-06-22T05:44:57;3.00;;;2.30;;
39322;SDS011;25036;53.638;10.134;2023-06-22T05:45:59;3.10;;;2.45;;
39322;SDS011;25036;53.638;10.134;2023-06-22T05:47:00;4.82;;;2.42;;
39322;SDS011;25036;53.638;10.134;2023-06-22T05:48:00;3.97;;;2.97;;
39322;SDS011;25036;53.638;10.134;2023-06-22T05:49:01;4.20;;;2.30;;
39322;SDS011;25036;53.638;10.134;2023-06-22T05:50:01;4.57;;;2.50;;
39322;SDS011;25036;53.638;10.134;2023-06-22T05:51:06;4.55;;;2.35;;
39322;SDS011;25036;53.638;10.134;2023-06-22T05:52:06;3.57;;;2.50;;
39322;SDS011;25036;53.638;10.134;2023-06-22T05:53:06;2.60;;;2.15;;
39322;SDS011;25036;53.638;10.134;2023-06-22T05:54:07;3.73;;;2.30;;
39322;SDS011;25036;53.638;10.134;2023-06-22T05:55:08;3.22;;;2.45;;
39322;SDS011;25036;53.638;10.134;2023-06-22T05:56:09;3.80;;;2.38;;
39322;SDS011;25036;53.638;10.134;2023-06-22T05:57:09;2.53;;;2.13;;
39322;SDS011;25036;53.638;10.134;2023-06-22T05:58:09;2.13;;;1.83;;
39322;SDS011;25036;53.638;10.134;2023-06-22T05:59:09;3.47;;;2.42;;
39322;SDS011;25036;53.638;10.134;2023-06-22T06:00:09;4.17;;;2.63;;
39322;SDS011;25036;53.638;10.134;2023-06-22T06:01:11;3.55;;;2.45;;
39322;SDS011;25036;53.638;10.134;2023-06-22T06:02:11;2.85;;;2.08;;
39322;SDS011;25036;53.638;10.134;2023-06-22T06:03:12;3.47;;;2.23;;
39322;SDS011;25036;53.638;10.134;2023-06-22T06:04:12;3.25;;;2.15;;
39322;SDS011;25036;53.638;10.134;2023-06-22T06:05:12;3.53;;;2.20;;
39322;SDS011;25036;53.638;10.134;2023-06-22T06:06:16;1.92;;;1.55;;
39322;SDS011;25036;53.638;10.134;2023-06-22T06:07:16;3.28;;;2.20;;
39322;SDS011;25036;53.638;10.134;2023-06-22T06:08:16;3.83;;;2.20;;